sensor_id;sensor_type;location;lat;lon;timestamp;temperature;humidity
55721;DHT22;41626;53.098;6.168;2023-04-01T00:02:18;10.50;99.90
55721;DHT22;41626;53.098;6.168;2023-04-01T00:04:44;10.50;99.90
55721;DHT22;41626;53.098;6.168;2023-04-01T00:07:09;10.40;99.90
55721;DHT22;41626;53.098;6.168;2023-04-01T00:09:36;10.40;99.90
55721;DHT22;41626;53.098;6.168;2023-04-01T00:12:02;10.40;99.90
55721;DHT22;41626;53.098;6.168;2023-04-01T00:14:27;10.40;99.90
55721;DHT22;41626;53.098;6.168;2023-04-01T00:16:54;10.50;99.90
55721;DHT22;41626;53.098;6.168;2023-04-01T00:19:20;10.50;99.90
55721;DHT22;41626;53.098;6.168;2023-04-01T00:21:45;10.40;99.90
55721;DHT22;41626;53.098;6.168;2023-04-01T00:24:11;10.40;99.90
55721;DHT22;41626;53.098;6.168;2023-04-01T00:26:37;10.40;99.90
55721;DHT22;41626;53.098;6.168;2023-04-01T00:29:03;10.40;99.90
55721;DHT22;41626;53.098;6.168;2023-04-01T00:31:28;10.50;99.90
55721;DHT22;41626;53.098;6.168;2023-04-01T00:33:55;10.50;99.90
55721;DHT22;41626;53.098;6.168;2023-04-01T00:36:21;10.50;99.90
55721;DHT22;41626;53.098;6.168;2023-04-01T00:38:49;10.40;99.90
55721;DHT22;41626;53.098;6.168;2023-04-01T00:41:15;10.40;99.90
55721;DHT22;41626;53.098;6.168;2023-04-01T00:43:48;10.40;99.90
55721;DHT22;41626;53.098;6.168;2023-04-01T00:46:14;10.40;99.90
55721;DHT22;41626;53.098;6.168;2023-04-01T00:48:45;10.40;99.90
55721;DHT22;41626;53.098;6.168;2023-04-01T00:51:17;10.50;99.90
55721;DHT22;41626;53.098;6.168;2023-04-01T00:53:47;10.40;99.90
55721;DHT22;41626;53.098;6.168;2023-04-01T00:56:30;10.40;99.90
55721;DHT22;41626;53.098;6.168;2023-04-01T00:59:00;10.40;99.90
55721;DHT22;41626;53.098;6.168;2023-04-01T01:01:28;10.40;99.90
55721;DHT22;41626;53.098;6.168;2023-04-01T01:03:55;10.50;99.90
55721;DHT22;41626;53.098;6.168;2023-04-01T01:16:58;10.40;99.90
55721;DHT22;41626;53.098;6.168;2023-04-01T01:28:48;10.40;99.90
55721;DHT22;41626;53.098;6.168;2023-04-01T01:36:33;10.40;99.90
55721;DHT22;41626;53.098;6.168;2023-04-01T01:39:06;10.40;99.90
55721;DHT22;41626;53.098;6.168;2023-04-01T01:41:35;10.40;99.90
55721;DHT22;41626;53.098;6.168;2023-04-01T01:44:05;10.40;99.90
55721;DHT22;41626;53.098;6.168;2023-04-01T01:46:31;10.40;99.90
55721;DHT22;41626;53.098;6.168;2023-04-01T01:48:57;10.30;99.90
55721;DHT22;41626;53.098;6.168;2023-04-01T01:51:26;10.20;99.90
55721;DHT22;41626;53.098;6.168;2023-04-01T01:53:53;10.30;99.90
55721;DHT22;41626;53.098;6.168;2023-04-01T01:56:22;10.30;99.90
55721;DHT22;41626;53.098;6.168;2023-04-01T01:58:56;10.40;99.90
55721;DHT22;41626;53.098;6.168;2023-04-01T02:01:26;10.40;99.90
55721;DHT22;41626;53.098;6.168;2023-04-01T02:03:53;10.30;99.90
55721;DHT22;41626;53.098;6.168;2023-04-01T02:06:22;10.30;99.90
55721;DHT22;41626;53.098;6.168;2023-04-01T02:09:01;10.40;99.90
55721;DHT22;41626;53.098;6.168;2023-04-01T02:11:52;10.40;99.90
55721;DHT22;41626;53.098;6.168;2023-04-01T02:14:28;10.40;99.90
55721;DHT22;41626;53.098;6.168;2023-04-01T02:17:10;10.40;99.90
55721;DHT22;41626;53.098;6.168;2023-04-01T02:19:40;10.30;99.90
55721;DHT22;41626;53.098;6.168;2023-04-01T02:22:12;10.40;99.90
55721;DHT22;41626;53.098;6.168;2023-04-01T02:24:40;10.40;99.90
55721;DHT22;41626;53.098;6.168;2023-04-01T02:27:06;10.20;99.90
55721;DHT22;41626;53.098;6.168;2023-04-01T02:29:33;10.20;99.90
55721;DHT22;41626;53.098;6.168;2023-04-01T02:32:00;10.20;99.90
55721;DHT22;41626;53.098;6.168;2023-04-01T02:34:26;10.20;99.90
55721;DHT22;41626;53.098;6.168;2023-04-01T02:36:52;10.30;99.90
55721;DHT22;41626;53.098;6.168;2023-04-01T02:39:19;10.30;99.90
55721;DHT22;41626;53.098;6.168;2023-04-01T02:41:45;10.20;99.90
55721;DHT22;41626;53.098;6.168;2023-04-01T02:44:13;10.30;99.90
55721;DHT22;41626;53.098;6.168;2023-04-01T02:46:39;10.30;99.90
55721;DHT22;41626;53.098;6.168;2023-04-01T02:49:06;10.20;99.90
55721;DHT22;41626;53.098;6.168;2023-04-01T02:51:32;10.30;99.90
55721;DHT22;41626;53.098;6.168;2023-04-01T02:53:58;10.20;99.90
55721;DHT22;41626;53.098;6.168;2023-04-01T02:56:24;10.20;99.90
55721;DHT22;41626;53.098;6.168;2023-04-01T02:58:51;10.20;99.90
55721;DHT22;41626;53.098;6.168;2023-04-01T03:01:16;10.20;99.90
55721;DHT22;41626;53.098;6.168;2023-04-01T03:03:42;10.20;99.90
55721;DHT22;41626;53.098;6.168;2023-04-01T03:06:09;10.20;99.90
55721;DHT22;41626;53.098;6.168;2023-04-01T03:08:35;10.20;99.90
55721;DHT22;41626;53.098;6.168;2023-04-01T03:11:02;10.20;99.90
55721;DHT22;41626;53.098;6.168;2023-04-01T03:13:27;10.10;99.90
55721;DHT22;41626;53.098;6.168;2023-04-01T03:15:53;10.10;99.90
55721;DHT22;41626;53.098;6.168;2023-04-01T03:18:19;10.20;99.90
55721;DHT22;41626;53.098;6.168;2023-04-01T03:20:45;10.20;99.90
55721;DHT22;41626;53.098;6.168;2023-04-01T03:23:11;10.20;99.90
55721;DHT22;41626;53.098;6.168;2023-04-01T03:25:37;10.10;99.90
55721;DHT22;41626;53.098;6.168;2023-04-01T03:28:02;10.20;99.90
55721;DHT22;41626;53.098;6.168;2023-04-01T03:30:28;10.10;99.90
55721;DHT22;41626;53.098;6.168;2023-04-01T03:32:57;10.20;99.90
55721;DHT22;41626;53.098;6.168;2023-04-01T03:35:24;10.30;99.90
55721;DHT22;41626;53.098;6.168;2023-04-01T03:37:51;10.10;99.90
55721;DHT22;41626;53.098;6.168;2023-04-01T03:40:17;10.10;99.90
55721;DHT22;41626;53.098;6.168;2023-04-01T03:42:43;10.20;99.90
55721;DHT22;41626;53.098;6.168;2023-04-01T03:45:09;10.20;99.90
55721;DHT22;41626;53.098;6.168;2023-04-01T03:47:35;10.10;99.90
55721;DHT22;41626;53.098;6.168;2023-04-01T03:50:01;10.10;99.90
55721;DHT22;41626;53.098;6.168;2023-04-01T03:52:26;10.20;99.90
55721;DHT22;41626;53.098;6.168;2023-04-01T03:54:52;10.10;99.90
55721;DHT22;41626;53.098;6.168;2023-04-01T03:57:18;10.20;99.90
55721;DHT22;41626;53.098;6.168;2023-04-01T03:59:44;10.20;99.90
55721;DHT22;41626;53.098;6.168;2023-04-01T04:02:09;10.20;99.90
55721;DHT22;41626;53.098;6.168;2023-04-01T04:04:35;10.10;99.90
55721;DHT22;41626;53.098;6.168;2023-04-01T04:07:01;10.20;99.90
55721;DHT22;41626;53.098;6.168;2023-04-01T04:09:26;10.20;99.90
55721;DHT22;41626;53.098;6.168;2023-04-01T04:11:52;10.20;99.90
55721;DHT22;41626;53.098;6.168;2023-04-01T04:14:18;10.20;99.90
55721;DHT22;41626;53.098;6.168;2023-04-01T04:16:43;10.10;99.90
55721;DHT22;41626;53.098;6.168;2023-04-01T04:19:09;10.20;99.90
55721;DHT22;41626;53.098;6.168;2023-04-01T04:21:35;10.20;99.90
55721;DHT22;41626;53.098;6.168;2023-04-01T04:24:01;10.20;99.90
55721;DHT22;41626;53.098;6.168;2023-04-01T04:26:27;10.10;99.90
55721;DHT22;41626;53.098;6.168;2023-04-01T04:28:54;10.00;99.90
55721;DHT22;41626;53.098;6.168;2023-04-01T04:31:22;10.10;99.90
55721;DHT22;41626;53.098;6.168;2023-04-01T04:33:48;10.10;99.90
55721;DHT22;41626;53.098;6.168;2023-04-01T04:36:14;10.10;99.90
55721;DHT22;41626;53.098;6.168;2023-04-01T04:38:40;10.20;99.90
55721;DHT22;41626;53.098;6.168;2023-04-01T04:41:13;10.10;99.90
55721;DHT22;41626;53.098;6.168;2023-04-01T04:43:40;10.10;99.90
55721;DHT22;41626;53.098;6.168;2023-04-01T04:46:07;10.10;99.90
55721;DHT22;41626;53.098;6.168;2023-04-01T04:48:33;10.00;99.90
55721;DHT22;41626;53.098;6.168;2023-04-01T04:51:00;10.00;99.90
55721;DHT22;41626;53.098;6.168;2023-04-01T04:53:26;9.90;99.90
55721;DHT22;41626;53.098;6.168;2023-04-01T04:55:52;9.90;99.90
55721;DHT22;41626;53.098;6.168;2023-04-01T04:58:18;9.90;99.90
55721;DHT22;41626;53.098;6.168;2023-04-01T05:00:43;9.90;99.90
55721;DHT22;41626;53.098;6.168;2023-04-01T05:03:09;9.90;99.90
55721;DHT22;41626;53.098;6.168;2023-04-01T05:05:36;10.00;99.90
55721;DHT22;41626;53.098;6.168;2023-04-01T05:08:01;10.00;99.90
55721;DHT22;41626;53.098;6.168;2023-04-01T05:10:27;10.00;99.90
55721;DHT22;41626;53.098;6.168;2023-04-01T05:12:53;10.00;99.90
55721;DHT22;41626;53.098;6.168;2023-04-01T05:15:18;10.10;99.90
55721;DHT22;41626;53.098;6.168;2023-04-01T05:17:44;10.00;99.90
55721;DHT22;41626;53.098;6.168;2023-04-01T05:20:12;10.00;99.90
55721;DHT22;41626;53.098;6.168;2023-04-01T05:22:38;10.00;99.90
55721;DHT22;41626;53.098;6.168;2023-04-01T05:25:04;10.00;99.90
55721;DHT22;41626;53.098;6.168;2023-04-01T05:27:30;9.90;99.90
55721;DHT22;41626;53.098;6.168;2023-04-01T05:29:55;9.90;99.90
55721;DHT22;41626;53.098;6.168;2023-04-01T05:32:21;10.00;99.90
55721;DHT22;41626;53.098;6.168;2023-04-01T05:34:50;10.00;99.90
55721;DHT22;41626;53.098;6.168;2023-04-01T05:37:16;9.90;99.90
55721;DHT22;41626;53.098;6.168;2023-04-01T05:39:42;9.90;99.90
55721;DHT22;41626;53.098;6.168;2023-04-01T05:42:08;10.00;99.90
55721;DHT22;41626;53.098;6.168;2023-04-01T05:44:34;9.90;99.90
55721;DHT22;41626;53.098;6.168;2023-04-01T05:47:01;9.90;99.90
55721;DHT22;41626;53.098;6.168;2023-04-01T05:49:26;9.90;99.90
55721;DHT22;41626;53.098;6.168;2023-04-01T05:51:52;10.00;99.90
55721;DHT22;41626;53.098;6.168;2023-04-01T05:54:18;10.00;99.90
55721;DHT22;41626;53.098;6.168;2023-04-01T05:56:44;10.00;99.90
55721;DHT22;41626;53.098;6.168;2023-04-01T05:59:11;10.00;99.90
55721;DHT22;41626;53.098;6.168;2023-04-01T06:01:37;10.10;99.90
55721;DHT22;41626;53.098;6.168;2023-04-01T06:04:03;10.00;99.90
55721;DHT22;41626;53.098;6.168;2023-04-01T06:06:30;10.00;99.90
55721;DHT22;41626;53.098;6.168;2023-04-01T06:09:04;10.00;99.90
55721;DHT22;41626;53.098;6.168;2023-04-01T06:11:48;10.00;99.90
55721;DHT22;41626;53.098;6.168;2023-04-01T06:29:17;10.10;99.90
55721;DHT22;41626;53.098;6.168;2023-04-01T06:53:46;10.20;99.90
55721;DHT22;41626;53.098;6.168;2023-04-01T06:56:16;10.30;99.90
55721;DHT22;41626;53.098;6.168;2023-04-01T06:58:50;10.30;99.90
55721;DHT22;41626;53.098;6.168;2023-04-01T07:01:32;10.20;99.90
55721;DHT22;41626;53.098;6.168;2023-04-01T07:04:04;10.20;99.90
55721;DHT22;41626;53.098;6.168;2023-04-01T07:07:01;10.20;99.90
55721;DHT22;41626;53.098;6.168;2023-04-01T07:09:31;10.20;99.90
55721;DHT22;41626;53.098;6.168;2023-04-01T07:12:02;10.30;99.90
55721;DHT22;41626;53.098;6.168;2023-04-01T07:14:36;10.20;99.90
55721;DHT22;41626;53.098;6.168;2023-04-01T07:17:12;10.10;99.90
55721;DHT22;41626;53.098;6.168;2023-04-01T07:19:53;10.20;99.90
55721;DHT22;41626;53.098;6.168;2023-04-01T07:24:59;10.30;99.90
55721;DHT22;41626;53.098;6.168;2023-04-01T07:27:26;10.20;99.90
55721;DHT22;41626;53.098;6.168;2023-04-01T07:29:52;10.30;99.90
55721;DHT22;41626;53.098;6.168;2023-04-01T07:32:27;10.40;99.90
55721;DHT22;41626;53.098;6.168;2023-04-01T07:43:52;10.70;99.90
55721;DHT22;41626;53.098;6.168;2023-04-01T07:54:20;11.10;99.90
55721;DHT22;41626;53.098;6.168;2023-04-01T07:56:56;11.00;99.90
55721;DHT22;41626;53.098;6.168;2023-04-01T07:59:58;11.00;99.90
55721;DHT22;41626;53.098;6.168;2023-04-01T08:07:52;11.00;99.90
55721;DHT22;41626;53.098;6.168;2023-04-01T08:16:06;11.10;99.90
55721;DHT22;41626;53.098;6.168;2023-04-01T08:18:42;11.20;99.90
55721;DHT22;41626;53.098;6.168;2023-04-01T08:21:21;11.10;99.90
55721;DHT22;41626;53.098;6.168;2023-04-01T08:23:52;11.10;99.90
55721;DHT22;41626;53.098;6.168;2023-04-01T08:26:37;10.90;99.90
55721;DHT22;41626;53.098;6.168;2023-04-01T08:29:18;11.10;99.90
55721;DHT22;41626;53.098;6.168;2023-04-01T08:32:27;11.10;99.90
55721;DHT22;41626;53.098;6.168;2023-04-01T08:35:02;11.20;99.90
55721;DHT22;41626;53.098;6.168;2023-04-01T08:37:35;11.10;99.90
55721;DHT22;41626;53.098;6.168;2023-04-01T08:40:31;11.10;99.90
55721;DHT22;41626;53.098;6.168;2023-04-01T08:43:35;11.10;99.90
55721;DHT22;41626;53.098;6.168;2023-04-01T08:49:05;11.10;99.90
55721;DHT22;41626;53.098;6.168;2023-04-01T08:57:42;10.90;99.90
55721;DHT22;41626;53.098;6.168;2023-04-01T09:00:14;10.90;99.90
55721;DHT22;41626;53.098;6.168;2023-04-01T09:10:55;11.10;99.90
55721;DHT22;41626;53.098;6.168;2023-04-01T09:21:51;11.20;99.90
55721;DHT22;41626;53.098;6.168;2023-04-01T09:27:32;11.30;99.90
55721;DHT22;41626;53.098;6.168;2023-04-01T09:31:36;11.30;99.90
55721;DHT22;41626;53.098;6.168;2023-04-01T09:36:31;11.30;99.90
55721;DHT22;41626;53.098;6.168;2023-04-01T09:39:32;11.00;99.90
55721;DHT22;41626;53.098;6.168;2023-04-01T09:44:35;11.00;99.90
55721;DHT22;41626;53.098;6.168;2023-04-01T09:52:10;10.80;99.90
55721;DHT22;41626;53.098;6.168;2023-04-01T10:04:13;10.40;99.90
55721;DHT22;41626;53.098;6.168;2023-04-01T10:07:12;10.30;99.90
55721;DHT22;41626;53.098;6.168;2023-04-01T10:23:56;10.40;99.90
55721;DHT22;41626;53.098;6.168;2023-04-01T10:35:14;10.30;99.90
55721;DHT22;41626;53.098;6.168;2023-04-01T10:40:31;10.20;99.90
55721;DHT22;41626;53.098;6.168;2023-04-01T10:51:58;9.90;99.90
55721;DHT22;41626;53.098;6.168;2023-04-01T11:30:33;10.10;99.90
55721;DHT22;41626;53.098;6.168;2023-04-01T11:36:18;9.90;99.90
55721;DHT22;41626;53.098;6.168;2023-04-01T11:44:47;10.00;99.90
55721;DHT22;41626;53.098;6.168;2023-04-01T11:47:34;10.00;99.90
55721;DHT22;41626;53.098;6.168;2023-04-01T11:50:30;10.20;99.90
55721;DHT22;41626;53.098;6.168;2023-04-01T11:55:51;10.10;99.90
55721;DHT22;41626;53.098;6.168;2023-04-01T12:07:08;10.00;99.90
55721;DHT22;41626;53.098;6.168;2023-04-01T12:15:22;10.00;99.90
55721;DHT22;41626;53.098;6.168;2023-04-01T12:17:51;10.10;99.90
55721;DHT22;41626;53.098;6.168;2023-04-01T12:23:38;10.00;99.90
55721;DHT22;41626;53.098;6.168;2023-04-01T12:32:17;10.00;99.90
55721;DHT22;41626;53.098;6.168;2023-04-01T12:35:20;10.20;99.90
55721;DHT22;41626;53.098;6.168;2023-04-01T12:46:54;10.10;99.90
55721;DHT22;41626;53.098;6.168;2023-04-01T13:08:18;10.30;99.90
55721;DHT22;41626;53.098;6.168;2023-04-01T13:11:09;10.00;99.90
55721;DHT22;41626;53.098;6.168;2023-04-01T13:33:56;9.80;99.90
55721;DHT22;41626;53.098;6.168;2023-04-01T13:44:38;9.90;99.90
55721;DHT22;41626;53.098;6.168;2023-04-01T14:09:45;9.70;99.90
55721;DHT22;41626;53.098;6.168;2023-04-01T14:12:31;9.60;99.90
55721;DHT22;41626;53.098;6.168;2023-04-01T14:28:41;9.30;99.90
55721;DHT22;41626;53.098;6.168;2023-04-01T14:50:46;9.20;99.90
55721;DHT22;41626;53.098;6.168;2023-04-01T14:55:58;9.10;99.90
55721;DHT22;41626;53.098;6.168;2023-04-01T14:58:39;9.00;99.90
55721;DHT22;41626;53.098;6.168;2023-04-01T15:14:48;8.80;99.90
55721;DHT22;41626;53.098;6.168;2023-04-01T15:28:11;8.60;99.90
55721;DHT22;41626;53.098;6.168;2023-04-01T15:33:42;8.50;99.90
55721;DHT22;41626;53.098;6.168;2023-04-01T15:39:04;8.50;99.90
55721;DHT22;41626;53.098;6.168;2023-04-01T15:51:19;8.40;99.90
55721;DHT22;41626;53.098;6.168;2023-04-01T15:59:17;8.40;99.90
55721;DHT22;41626;53.098;6.168;2023-04-01T16:13:22;8.20;99.90
55721;DHT22;41626;53.098;6.168;2023-04-01T16:26:19;8.00;99.90
55721;DHT22;41626;53.098;6.168;2023-04-01T16:31:43;7.90;99.90
55721;DHT22;41626;53.098;6.168;2023-04-01T16:34:20;8.00;99.90
55721;DHT22;41626;53.098;6.168;2023-04-01T16:36:51;7.90;99.90
55721;DHT22;41626;53.098;6.168;2023-04-01T16:42:42;7.70;99.90
55721;DHT22;41626;53.098;6.168;2023-04-01T16:48:10;7.70;99.90
55721;DHT22;41626;53.098;6.168;2023-04-01T16:50:58;7.60;99.90
55721;DHT22;41626;53.098;6.168;2023-04-01T16:56:07;7.50;99.90
55721;DHT22;41626;53.098;6.168;2023-04-01T16:58:41;7.60;99.90
55721;DHT22;41626;53.098;6.168;2023-04-01T17:01:21;7.60;99.90
55721;DHT22;41626;53.098;6.168;2023-04-01T17:03:52;7.60;99.90
55721;DHT22;41626;53.098;6.168;2023-04-01T17:06:49;7.60;99.90
55721;DHT22;41626;53.098;6.168;2023-04-01T17:17:30;7.50;99.90
55721;DHT22;41626;53.098;6.168;2023-04-01T17:22:53;7.40;99.90
55721;DHT22;41626;53.098;6.168;2023-04-01T17:37:15;7.20;99.90
55721;DHT22;41626;53.098;6.168;2023-04-01T17:45:57;7.20;99.90
55721;DHT22;41626;53.098;6.168;2023-04-01T18:10:20;7.00;99.90
55721;DHT22;41626;53.098;6.168;2023-04-01T18:26:38;6.80;99.90
55721;DHT22;41626;53.098;6.168;2023-04-01T18:35:28;6.80;99.90
55721;DHT22;41626;53.098;6.168;2023-04-01T18:37:30;6.60;99.90
55721;DHT22;41626;53.098;6.168;2023-04-01T18:45:35;6.70;99.90
55721;DHT22;41626;53.098;6.168;2023-04-01T18:56:34;6.70;99.90
55721;DHT22;41626;53.098;6.168;2023-04-01T19:02:21;6.60;99.90
55721;DHT22;41626;53.098;6.168;2023-04-01T19:07:47;6.70;99.90
55721;DHT22;41626;53.098;6.168;2023-04-01T19:10:26;6.50;99.90
55721;DHT22;41626;53.098;6.168;2023-04-01T19:13:31;6.60;99.90
55721;DHT22;41626;53.098;6.168;2023-04-01T19:21:41;6.40;99.90
55721;DHT22;41626;53.098;6.168;2023-04-01T19:29:47;6.40;99.90
55721;DHT22;41626;53.098;6.168;2023-04-01T19:32:16;6.40;99.90
55721;DHT22;41626;53.098;6.168;2023-04-01T19:37:54;6.30;99.90
55721;DHT22;41626;53.098;6.168;2023-04-01T19:50:55;6.10;99.90
55721;DHT22;41626;53.098;6.168;2023-04-01T19:53:48;6.20;99.90
55721;DHT22;41626;53.098;6.168;2023-04-01T19:56:23;6.10;99.90
55721;DHT22;41626;53.098;6.168;2023-04-01T19:59:22;6.20;99.90
55721;DHT22;41626;53.098;6.168;2023-04-01T20:04:43;6.10;99.90
55721;DHT22;41626;53.098;6.168;2023-04-01T20:18:02;6.00;99.90
55721;DHT22;41626;53.098;6.168;2023-04-01T20:20:30;5.90;99.90
55721;DHT22;41626;53.098;6.168;2023-04-01T20:23:21;6.00;99.90
55721;DHT22;41626;53.098;6.168;2023-04-01T20:26:02;6.00;99.90
55721;DHT22;41626;53.098;6.168;2023-04-01T20:28:42;5.90;99.90
55721;DHT22;41626;53.098;6.168;2023-04-01T20:46:01;5.70;99.90
55721;DHT22;41626;53.098;6.168;2023-04-01T20:48:47;5.70;99.90
55721;DHT22;41626;53.098;6.168;2023-04-01T20:51:26;5.70;99.90
55721;DHT22;41626;53.098;6.168;2023-04-01T21:02:40;5.70;99.90
55721;DHT22;41626;53.098;6.168;2023-04-01T21:11:09;5.60;99.90
55721;DHT22;41626;53.098;6.168;2023-04-01T21:13:47;5.60;99.90
55721;DHT22;41626;53.098;6.168;2023-04-01T21:16:43;5.60;99.90
55721;DHT22;41626;53.098;6.168;2023-04-01T21:23:10;5.50;99.90
55721;DHT22;41626;53.098;6.168;2023-04-01T21:28:15;5.50;99.90
55721;DHT22;41626;53.098;6.168;2023-04-01T21:40:03;5.50;99.90
55721;DHT22;41626;53.098;6.168;2023-04-01T21:50:54;5.40;99.90
55721;DHT22;41626;53.098;6.168;2023-04-01T21:53:42;5.40;99.90
55721;DHT22;41626;53.098;6.168;2023-04-01T22:07:17;5.40;99.90
55721;DHT22;41626;53.098;6.168;2023-04-01T22:09:56;5.40;99.90
55721;DHT22;41626;53.098;6.168;2023-04-01T22:12:35;5.30;99.90
55721;DHT22;41626;53.098;6.168;2023-04-01T22:15:21;5.30;99.90
55721;DHT22;41626;53.098;6.168;2023-04-01T22:18:07;5.30;99.90
55721;DHT22;41626;53.098;6.168;2023-04-01T22:20:51;5.20;99.90
55721;DHT22;41626;53.098;6.168;2023-04-01T22:23:28;5.30;99.90
55721;DHT22;41626;53.098;6.168;2023-04-01T22:25:59;5.40;99.90
55721;DHT22;41626;53.098;6.168;2023-04-01T22:31:10;5.30;99.90
55721;DHT22;41626;53.098;6.168;2023-04-01T22:39:40;5.30;99.90
55721;DHT22;41626;53.098;6.168;2023-04-01T22:49:42;5.20;99.90
55721;DHT22;41626;53.098;6.168;2023-04-01T22:54:49;5.10;99.90
55721;DHT22;41626;53.098;6.168;2023-04-01T22:57:40;5.10;99.90
55721;DHT22;41626;53.098;6.168;2023-04-01T23:00:18;5.20;99.90
55721;DHT22;41626;53.098;6.168;2023-04-01T23:05:28;5.10;99.90
55721;DHT22;41626;53.098;6.168;2023-04-01T23:11:06;5.00;99.90
55721;DHT22;41626;53.098;6.168;2023-04-01T23:13:44;4.70;99.90
55721;DHT22;41626;53.098;6.168;2023-04-01T23:16:11;4.90;99.90
55721;DHT22;41626;53.098;6.168;2023-04-01T23:21:21;4.70;99.90
55721;DHT22;41626;53.098;6.168;2023-04-01T23:27:00;4.60;99.90
55721;DHT22;41626;53.098;6.168;2023-04-01T23:29:28;4.50;99.90
55721;DHT22;41626;53.098;6.168;2023-04-01T23:32:01;4.50;99.90
55721;DHT22;41626;53.098;6.168;2023-04-01T23:34:34;4.50;99.90
55721;DHT22;41626;53.098;6.168;2023-04-01T23:37:08;4.50;99.90
55721;DHT22;41626;53.098;6.168;2023-04-01T23:42:41;4.40;99.90
55721;DHT22;41626;53.098;6.168;2023-04-01T23:45:17;4.40;99.90
55721;DHT22;41626;53.098;6.168;2023-04-01T23:47:46;4.40;99.90
55721;DHT22;41626;53.098;6.168;2023-04-01T23:50:20;4.40;99.90
55721;DHT22;41626;53.098;6.168;2023-04-01T23:52:52;4.30;99.90
55721;DHT22;41626;53.098;6.168;2023-04-01T23:55:23;4.50;99.90
